sensor_id;sensor_type;location;lat;lon;timestamp;pressure;altitude;pressure_sealevel;temperature;humidity
53940;BME280;39850;43.324;21.916;2022-09-09T00:24:53;991.0;;;19.9;72.0
53940;BME280;39850;43.324;21.916;2022-09-09T00:29:49;991.0;;;19.9;72.0
53940;BME280;39850;43.324;21.916;2022-09-09T00:34:31;991.0;;;19.9;72.0
53940;BME280;39850;43.324;21.916;2022-09-09T00:39:38;991.0;;;19.9;72.0
53940;BME280;39850;43.324;21.916;2022-09-09T00:44:34;991.0;;;19.9;72.0
53940;BME280;39850;43.324;21.916;2022-09-09T00:49:48;991.0;;;19.9;72.0
53940;BME280;39850;43.324;21.916;2022-09-09T00:55:07;991.0;;;19.8;71.0
53940;BME280;39850;43.324;21.916;2022-09-09T01:00:21;991.0;;;19.8;71.0
53940;BME280;39850;43.324;21.916;2022-09-09T01:05:22;991.0;;;19.8;71.0
53940;BME280;39850;43.324;21.916;2022-09-09T01:10:47;991.0;;;19.8;71.0
53940;BME280;39850;43.324;21.916;2022-09-09T01:45:54;991.0;;;20.0;70.0
53940;BME280;39850;43.324;21.916;2022-09-09T01:50:33;991.0;;;20.0;70.0
53940;BME280;39850;43.324;21.916;2022-09-09T01:55:13;991.0;;;19.4;71.0
53940;BME280;39850;43.324;21.916;2022-09-09T02:00:13;991.0;;;19.4;71.0
53940;BME280;39850;43.324;21.916;2022-09-09T02:05:37;991.0;;;18.9;71.0
53940;BME280;39850;43.324;21.916;2022-09-09T02:10:53;991.0;;;18.9;71.0
53940;BME280;39850;43.324;21.916;2022-09-09T02:16:03;991.0;;;18.9;71.0
53940;BME280;39850;43.324;21.916;2022-09-09T02:20:57;991.0;;;18.9;71.0
53940;BME280;39850;43.324;21.916;2022-09-09T02:25:42;991.0;;;18.9;71.0
53940;BME280;39850;43.324;21.916;2022-09-09T02:30:23;991.0;;;18.9;71.0
53940;BME280;39850;43.324;21.916;2022-09-09T03:04:48;991.0;;;19.1;74.0
53940;BME280;39850;43.324;21.916;2022-09-09T03:09:26;991.0;;;19.1;74.0
53940;BME280;39850;43.324;21.916;2022-09-09T03:14:03;991.0;;;19.1;74.0
53940;BME280;39850;43.324;21.916;2022-09-09T03:18:39;991.0;;;19.1;74.0
53940;BME280;39850;43.324;21.916;2022-09-09T03:23:16;991.0;;;19.1;74.0
53940;BME280;39850;43.324;21.916;2022-09-09T03:27:56;991.0;;;19.1;74.0
53940;BME280;39850;43.324;21.916;2022-09-09T03:32:33;991.0;;;19.1;74.0
53940;BME280;39850;43.324;21.916;2022-09-09T03:37:10;991.0;;;19.1;74.0
53940;BME280;39850;43.324;21.916;2022-09-09T03:41:47;991.0;;;19.1;74.0
53940;BME280;39850;43.324;21.916;2022-09-09T03:46:26;991.0;;;19.1;74.0
53940;BME280;39850;43.324;21.916;2022-09-09T03:51:04;991.0;;;19.1;74.0
53940;BME280;39850;43.324;21.916;2022-09-09T04:28:06;991.0;;;20.0;70.0
53940;BME280;39850;43.324;21.916;2022-09-09T04:32:42;991.0;;;20.0;70.0
53940;BME280;39850;43.324;21.916;2022-09-09T04:37:20;991.0;;;20.0;70.0
53940;BME280;39850;43.324;21.916;2022-09-09T04:41:57;991.0;;;20.0;70.0
53940;BME280;39850;43.324;21.916;2022-09-09T04:46:34;991.0;;;20.0;70.0
53940;BME280;39850;43.324;21.916;2022-09-09T04:51:15;991.0;;;20.0;70.0
53940;BME280;39850;43.324;21.916;2022-09-09T04:56:06;991.0;;;20.0;70.0
53940;BME280;39850;43.324;21.916;2022-09-09T05:00:48;991.0;;;20.0;70.0
53940;BME280;39850;43.324;21.916;2022-09-09T05:05:25;991.0;;;19.9;70.0
53940;BME280;39850;43.324;21.916;2022-09-09T05:10:05;991.0;;;19.9;70.0
53940;BME280;39850;43.324;21.916;2022-09-09T05:14:43;991.0;;;19.9;70.0
53940;BME280;39850;43.324;21.916;2022-09-09T05:47:08;991.0;;;20.8;69.0
53940;BME280;39850;43.324;21.916;2022-09-09T05:51:44;991.0;;;20.8;69.0
53940;BME280;39850;43.324;21.916;2022-09-09T05:56:28;991.0;;;20.8;69.0
53940;BME280;39850;43.324;21.916;2022-09-09T06:01:14;991.0;;;20.8;69.0
53940;BME280;39850;43.324;21.916;2022-09-09T06:06:04;991.0;;;20.9;69.0
53940;BME280;39850;43.324;21.916;2022-09-09T06:10:41;991.0;;;20.9;69.0
53940;BME280;39850;43.324;21.916;2022-09-09T06:15:17;992.0;;;20.9;69.0
53940;BME280;39850;43.324;21.916;2022-09-09T06:19:54;992.0;;;20.9;69.0
53940;BME280;39850;43.324;21.916;2022-09-09T06:24:30;992.0;;;20.9;69.0
53940;BME280;39850;43.324;21.916;2022-09-09T06:29:10;992.0;;;20.9;69.0
53940;BME280;39850;43.324;21.916;2022-09-09T06:33:52;992.0;;;20.9;69.0
53940;BME280;39850;43.324;21.916;2022-09-09T07:06:29;992.0;;;21.8;70.0
53940;BME280;39850;43.324;21.916;2022-09-09T07:11:10;992.0;;;21.8;70.0
53940;BME280;39850;43.324;21.916;2022-09-09T07:15:47;992.0;;;21.8;70.0
53940;BME280;39850;43.324;21.916;2022-09-09T07:20:24;992.0;;;21.8;70.0
53940;BME280;39850;43.324;21.916;2022-09-09T07:25:02;992.0;;;21.8;70.0
53940;BME280;39850;43.324;21.916;2022-09-09T07:29:42;992.0;;;21.8;70.0
53940;BME280;39850;43.324;21.916;2022-09-09T07:34:19;992.0;;;21.8;70.0
53940;BME280;39850;43.324;21.916;2022-09-09T07:39:07;992.0;;;21.8;70.0
53940;BME280;39850;43.324;21.916;2022-09-09T07:43:54;992.0;;;21.8;70.0
53940;BME280;39850;43.324;21.916;2022-09-09T07:48:31;992.0;;;21.8;69.0
53940;BME280;39850;43.324;21.916;2022-09-09T07:53:09;992.0;;;21.8;69.0
53940;BME280;39850;43.324;21.916;2022-09-09T08:50:28;993.0;;;21.7;69.0
53940;BME280;39850;43.324;21.916;2022-09-09T08:55:41;993.0;;;21.7;69.0
53940;BME280;39850;43.324;21.916;2022-09-09T09:00:32;993.0;;;21.7;69.0
53940;BME280;39850;43.324;21.916;2022-09-09T09:05:46;993.0;;;21.7;69.0
53940;BME280;39850;43.324;21.916;2022-09-09T09:10:51;993.0;;;21.7;69.0
53940;BME280;39850;43.324;21.916;2022-09-09T09:15:44;993.0;;;21.7;69.0
53940;BME280;39850;43.324;21.916;2022-09-09T09:49:23;993.0;;;21.3;74.0
53940;BME280;39850;43.324;21.916;2022-09-09T09:54:39;993.0;;;21.3;74.0
53940;BME280;39850;43.324;21.916;2022-09-09T09:59:37;992.0;;;21.0;75.0
53940;BME280;39850;43.324;21.916;2022-09-09T10:04:23;992.0;;;21.0;75.0
53940;BME280;39850;43.324;21.916;2022-09-09T10:09:29;992.0;;;20.8;76.0
53940;BME280;39850;43.324;21.916;2022-09-09T10:14:43;992.0;;;20.8;76.0
53940;BME280;39850;43.324;21.916;2022-09-09T10:20:42;992.0;;;20.8;76.0
53940;BME280;39850;43.324;21.916;2022-09-09T10:26:46;992.0;;;20.8;77.0
53940;BME280;39850;43.324;21.916;2022-09-09T10:32:41;992.0;;;20.8;77.0
53940;BME280;39850;43.324;21.916;2022-09-09T11:10:41;992.0;;;22.7;70.0
53940;BME280;39850;43.324;21.916;2022-09-09T11:15:44;992.0;;;22.7;70.0
53940;BME280;39850;43.324;21.916;2022-09-09T11:20:23;992.0;;;22.6;70.0
53940;BME280;39850;43.324;21.916;2022-09-09T11:25:23;992.0;;;22.6;70.0
53940;BME280;39850;43.324;21.916;2022-09-09T11:30:25;992.0;;;22.7;70.0
53940;BME280;39850;43.324;21.916;2022-09-09T11:36:01;992.0;;;22.7;70.0
53940;BME280;39850;43.324;21.916;2022-09-09T11:40:42;992.0;;;23.0;69.0
53940;BME280;39850;43.324;21.916;2022-09-09T11:45:29;992.0;;;23.0;69.0
53940;BME280;39850;43.324;21.916;2022-09-09T11:50:34;992.0;;;23.4;68.0
53940;BME280;39850;43.324;21.916;2022-09-09T11:55:32;992.0;;;23.4;68.0
53940;BME280;39850;43.324;21.916;2022-09-09T12:31:05;991.0;;;24.6;63.0
53940;BME280;39850;43.324;21.916;2022-09-09T12:35:59;991.0;;;24.6;63.0
53940;BME280;39850;43.324;21.916;2022-09-09T12:40:36;991.0;;;24.6;63.0
53940;BME280;39850;43.324;21.916;2022-09-09T12:45:29;991.0;;;24.6;63.0
53940;BME280;39850;43.324;21.916;2022-09-09T12:50:29;991.0;;;24.6;63.0
53940;BME280;39850;43.324;21.916;2022-09-09T12:55:30;991.0;;;24.6;63.0
53940;BME280;39850;43.324;21.916;2022-09-09T13:00:25;991.0;;;24.0;64.0
53940;BME280;39850;43.324;21.916;2022-09-09T13:05:25;991.0;;;24.0;64.0
53940;BME280;39850;43.324;21.916;2022-09-09T13:10:27;991.0;;;23.5;64.0
53940;BME280;39850;43.324;21.916;2022-09-09T13:15:30;991.0;;;23.5;64.0
53940;BME280;39850;43.324;21.916;2022-09-09T13:49:39;990.0;;;23.7;65.0
53940;BME280;39850;43.324;21.916;2022-09-09T13:54:21;990.0;;;23.7;65.0
53940;BME280;39850;43.324;21.916;2022-09-09T13:58:57;990.0;;;23.7;65.0
53940;BME280;39850;43.324;21.916;2022-09-09T14:03:34;990.0;;;23.7;65.0
53940;BME280;39850;43.324;21.916;2022-09-09T14:08:27;990.0;;;23.7;65.0
53940;BME280;39850;43.324;21.916;2022-09-09T14:13:04;990.0;;;23.7;65.0
53940;BME280;39850;43.324;21.916;2022-09-09T14:17:41;990.0;;;23.2;65.0
53940;BME280;39850;43.324;21.916;2022-09-09T14:22:17;990.0;;;23.2;65.0
53940;BME280;39850;43.324;21.916;2022-09-09T14:26:56;990.0;;;22.7;66.0
53940;BME280;39850;43.324;21.916;2022-09-09T14:31:33;990.0;;;22.7;66.0
53940;BME280;39850;43.324;21.916;2022-09-09T14:36:11;990.0;;;22.7;66.0
53940;BME280;39850;43.324;21.916;2022-09-09T15:08:51;990.0;;;22.8;65.0
53940;BME280;39850;43.324;21.916;2022-09-09T15:13:29;990.0;;;22.8;65.0
53940;BME280;39850;43.324;21.916;2022-09-09T15:18:06;990.0;;;23.1;65.0
53940;BME280;39850;43.324;21.916;2022-09-09T15:22:43;990.0;;;23.1;65.0
53940;BME280;39850;43.324;21.916;2022-09-09T15:27:21;990.0;;;23.4;65.0
53940;BME280;39850;43.324;21.916;2022-09-09T15:31:58;990.0;;;23.4;65.0
53940;BME280;39850;43.324;21.916;2022-09-09T15:36:41;990.0;;;23.4;65.0
53940;BME280;39850;43.324;21.916;2022-09-09T15:41:24;990.0;;;23.5;65.0
53940;BME280;39850;43.324;21.916;2022-09-09T15:46:33;990.0;;;23.5;65.0
53940;BME280;39850;43.324;21.916;2022-09-09T15:51:13;990.0;;;23.7;65.0
53940;BME280;39850;43.324;21.916;2022-09-09T15:55:55;990.0;;;23.7;65.0
53940;BME280;39850;43.324;21.916;2022-09-09T16:28:29;990.0;;;22.8;68.0
53940;BME280;39850;43.324;21.916;2022-09-09T16:33:06;990.0;;;22.8;68.0
53940;BME280;39850;43.324;21.916;2022-09-09T16:37:42;990.0;;;22.8;68.0
53940;BME280;39850;43.324;21.916;2022-09-09T16:42:18;990.0;;;22.8;68.0
53940;BME280;39850;43.324;21.916;2022-09-09T16:46:55;990.0;;;22.8;68.0
53940;BME280;39850;43.324;21.916;2022-09-09T16:51:41;990.0;;;22.8;68.0
53940;BME280;39850;43.324;21.916;2022-09-09T16:56:27;990.0;;;22.8;68.0
53940;BME280;39850;43.324;21.916;2022-09-09T17:01:06;990.0;;;22.8;68.0
53940;BME280;39850;43.324;21.916;2022-09-09T17:05:42;990.0;;;22.8;68.0
53940;BME280;39850;43.324;21.916;2022-09-09T17:10:19;990.0;;;22.8;68.0
53940;BME280;39850;43.324;21.916;2022-09-09T17:14:56;990.0;;;22.8;68.0
53940;BME280;39850;43.324;21.916;2022-09-09T17:51:52;990.0;;;21.8;71.0
53940;BME280;39850;43.324;21.916;2022-09-09T17:56:35;990.0;;;21.8;71.0
53940;BME280;39850;43.324;21.916;2022-09-09T18:01:26;990.0;;;21.8;71.0
53940;BME280;39850;43.324;21.916;2022-09-09T18:06:19;990.0;;;21.8;71.0
53940;BME280;39850;43.324;21.916;2022-09-09T18:11:07;990.0;;;21.8;71.0
53940;BME280;39850;43.324;21.916;2022-09-09T18:15:45;990.0;;;21.8;71.0
53940;BME280;39850;43.324;21.916;2022-09-09T18:20:22;990.0;;;21.8;71.0
53940;BME280;39850;43.324;21.916;2022-09-09T18:24:59;990.0;;;21.8;71.0
53940;BME280;39850;43.324;21.916;2022-09-09T18:29:36;990.0;;;21.8;72.0
53940;BME280;39850;43.324;21.916;2022-09-09T18:34:20;990.0;;;21.8;72.0
53940;BME280;39850;43.324;21.916;2022-09-09T19:11:28;990.0;;;21.7;75.0
53940;BME280;39850;43.324;21.916;2022-09-09T19:16:13;990.0;;;21.7;75.0
53940;BME280;39850;43.324;21.916;2022-09-09T19:20:49;990.0;;;21.8;75.0
53940;BME280;39850;43.324;21.916;2022-09-09T19:25:26;990.0;;;21.8;75.0
53940;BME280;39850;43.324;21.916;2022-09-09T19:30:08;990.0;;;21.8;75.0
53940;BME280;39850;43.324;21.916;2022-09-09T19:34:44;990.0;;;21.8;75.0
53940;BME280;39850;43.324;21.916;2022-09-09T19:39:21;990.0;;;21.8;76.0
53940;BME280;39850;43.324;21.916;2022-09-09T19:44:10;990.0;;;21.8;76.0
53940;BME280;39850;43.324;21.916;2022-09-09T19:48:49;990.0;;;21.8;76.0
53940;BME280;39850;43.324;21.916;2022-09-09T19:53:26;990.0;;;21.8;76.0
53940;BME280;39850;43.324;21.916;2022-09-09T20:30:49;990.0;;;20.8;78.0
53940;BME280;39850;43.324;21.916;2022-09-09T20:35:28;990.0;;;20.8;78.0
53940;BME280;39850;43.324;21.916;2022-09-09T20:40:08;990.0;;;21.3;78.0
53940;BME280;39850;43.324;21.916;2022-09-09T20:44:46;990.0;;;21.3;78.0
53940;BME280;39850;43.324;21.916;2022-09-09T20:49:24;990.0;;;21.8;78.0
53940;BME280;39850;43.324;21.916;2022-09-09T20:54:10;990.0;;;21.8;78.0
53940;BME280;39850;43.324;21.916;2022-09-09T20:58:55;990.0;;;21.8;77.0
53940;BME280;39850;43.324;21.916;2022-09-09T21:03:35;990.0;;;21.8;77.0
53940;BME280;39850;43.324;21.916;2022-09-09T21:08:12;990.0;;;21.8;77.0
53940;BME280;39850;43.324;21.916;2022-09-09T21:12:49;990.0;;;21.8;77.0
53940;BME280;39850;43.324;21.916;2022-09-09T21:17:26;990.0;;;21.8;77.0
53940;BME280;39850;43.324;21.916;2022-09-09T21:50:03;990.0;;;20.8;79.0
53940;BME280;39850;43.324;21.916;2022-09-09T21:54:40;990.0;;;20.8;79.0
53940;BME280;39850;43.324;21.916;2022-09-09T21:59:17;990.0;;;20.8;80.0
53940;BME280;39850;43.324;21.916;2022-09-09T22:03:54;990.0;;;20.8;80.0
53940;BME280;39850;43.324;21.916;2022-09-09T22:08:31;990.0;;;20.8;80.0
53940;BME280;39850;43.324;21.916;2022-09-09T22:13:08;990.0;;;20.8;80.0
53940;BME280;39850;43.324;21.916;2022-09-09T22:17:44;990.0;;;20.8;80.0
53940;BME280;39850;43.324;21.916;2022-09-09T22:22:21;990.0;;;20.4;80.0
53940;BME280;39850;43.324;21.916;2022-09-09T22:26:58;990.0;;;20.4;80.0
53940;BME280;39850;43.324;21.916;2022-09-09T22:31:36;990.0;;;19.9;80.0
53940;BME280;39850;43.324;21.916;2022-09-09T22:36:13;990.0;;;19.9;80.0
53940;BME280;39850;43.324;21.916;2022-09-09T23:13:14;990.0;;;19.8;81.0
53940;BME280;39850;43.324;21.916;2022-09-09T23:17:51;990.0;;;19.8;81.0
53940;BME280;39850;43.324;21.916;2022-09-09T23:22:29;990.0;;;19.8;81.0
53940;BME280;39850;43.324;21.916;2022-09-09T23:27:07;990.0;;;19.8;81.0
53940;BME280;39850;43.324;21.916;2022-09-09T23:31:46;989.0;;;19.8;81.0
53940;BME280;39850;43.324;21.916;2022-09-09T23:36:28;989.0;;;19.8;81.0
53940;BME280;39850;43.324;21.916;2022-09-09T23:41:16;989.0;;;19.8;82.0
53940;BME280;39850;43.324;21.916;2022-09-09T23:45:56;989.0;;;19.8;82.0
53940;BME280;39850;43.324;21.916;2022-09-09T23:50:33;989.0;;;19.9;82.0
53940;BME280;39850;43.324;21.916;2022-09-09T23:55:10;989.0;;;19.9;82.0
